sensor_id;sensor_type;location;lat;lon;timestamp;P1;durP1;ratioP1;P2;durP2;ratioP2
76939;SDS011;65885;55.848;35.916;2023-02-01T00:00:38;2.50;;;1.73;;
76939;SDS011;65885;55.848;35.916;2023-02-01T00:03:05;3.35;;;2.05;;
76939;SDS011;65885;55.848;35.916;2023-02-01T00:05:34;3.25;;;1.55;;
76939;SDS011;65885;55.848;35.916;2023-02-01T00:08:01;2.15;;;1.65;;
76939;SDS011;65885;55.848;35.916;2023-02-01T00:10:28;3.72;;;2.15;;
76939;SDS011;65885;55.848;35.916;2023-02-01T00:12:57;2.88;;;2.15;;
76939;SDS011;65885;55.848;35.916;2023-02-01T00:15:24;3.08;;;1.80;;
76939;SDS011;65885;55.848;35.916;2023-02-01T00:17:52;3.35;;;1.90;;
76939;SDS011;65885;55.848;35.916;2023-02-01T00:20:20;2.60;;;1.70;;
76939;SDS011;65885;55.848;35.916;2023-02-01T00:22:47;4.05;;;2.22;;
76939;SDS011;65885;55.848;35.916;2023-02-01T00:25:14;4.55;;;1.83;;
76939;SDS011;65885;55.848;35.916;2023-02-01T00:27:42;2.65;;;2.08;;
76939;SDS011;65885;55.848;35.916;2023-02-01T00:30:11;2.30;;;1.50;;
76939;SDS011;65885;55.848;35.916;2023-02-01T00:32:39;2.55;;;1.45;;
76939;SDS011;65885;55.848;35.916;2023-02-01T00:35:07;2.67;;;1.92;;
76939;SDS011;65885;55.848;35.916;2023-02-01T00:37:35;2.40;;;1.70;;
76939;SDS011;65885;55.848;35.916;2023-02-01T00:40:02;3.63;;;1.92;;
76939;SDS011;65885;55.848;35.916;2023-02-01T00:42:30;2.20;;;1.38;;
76939;SDS011;65885;55.848;35.916;2023-02-01T00:44:58;2.33;;;1.50;;
76939;SDS011;65885;55.848;35.916;2023-02-01T00:47:27;2.63;;;1.50;;
76939;SDS011;65885;55.848;35.916;2023-02-01T00:49:55;2.35;;;1.60;;
76939;SDS011;65885;55.848;35.916;2023-02-01T00:52:23;2.65;;;1.50;;
76939;SDS011;65885;55.848;35.916;2023-02-01T00:54:50;2.60;;;1.92;;
76939;SDS011;65885;55.848;35.916;2023-02-01T00:57:17;2.65;;;1.88;;
76939;SDS011;65885;55.848;35.916;2023-02-01T00:59:44;2.22;;;1.35;;
76939;SDS011;65885;55.848;35.916;2023-02-01T01:02:12;2.60;;;1.88;;
76939;SDS011;65885;55.848;35.916;2023-02-01T01:04:42;2.47;;;1.70;;
76939;SDS011;65885;55.848;35.916;2023-02-01T01:07:09;2.20;;;1.52;;
76939;SDS011;65885;55.848;35.916;2023-02-01T01:09:37;2.53;;;1.75;;
76939;SDS011;65885;55.848;35.916;2023-02-01T01:12:05;2.85;;;1.40;;
76939;SDS011;65885;55.848;35.916;2023-02-01T01:14:32;3.47;;;1.52;;
76939;SDS011;65885;55.848;35.916;2023-02-01T01:16:59;2.28;;;1.40;;
76939;SDS011;65885;55.848;35.916;2023-02-01T01:19:27;3.72;;;1.88;;
76939;SDS011;65885;55.848;35.916;2023-02-01T01:21:55;2.05;;;1.45;;
76939;SDS011;65885;55.848;35.916;2023-02-01T01:24:23;4.22;;;1.58;;
76939;SDS011;65885;55.848;35.916;2023-02-01T01:26:50;2.05;;;1.33;;
76939;SDS011;65885;55.848;35.916;2023-02-01T01:29:17;1.88;;;1.25;;
76939;SDS011;65885;55.848;35.916;2023-02-01T01:31:45;2.20;;;1.33;;
76939;SDS011;65885;55.848;35.916;2023-02-01T01:34:12;2.63;;;1.52;;
76939;SDS011;65885;55.848;35.916;2023-02-01T01:36:40;2.40;;;1.83;;
76939;SDS011;65885;55.848;35.916;2023-02-01T01:39:08;2.55;;;1.52;;
76939;SDS011;65885;55.848;35.916;2023-02-01T01:41:36;3.03;;;1.52;;
76939;SDS011;65885;55.848;35.916;2023-02-01T01:44:04;2.35;;;1.80;;
76939;SDS011;65885;55.848;35.916;2023-02-01T01:46:34;2.95;;;1.80;;
76939;SDS011;65885;55.848;35.916;2023-02-01T01:49:04;5.85;;;2.28;;
76939;SDS011;65885;55.848;35.916;2023-02-01T01:51:35;2.80;;;2.22;;
76939;SDS011;65885;55.848;35.916;2023-02-01T01:54:07;2.72;;;2.40;;
76939;SDS011;65885;55.848;35.916;2023-02-01T01:56:38;2.90;;;2.05;;
76939;SDS011;65885;55.848;35.916;2023-02-01T01:59:07;3.20;;;2.25;;
76939;SDS011;65885;55.848;35.916;2023-02-01T02:01:35;3.25;;;2.08;;
76939;SDS011;65885;55.848;35.916;2023-02-01T02:04:03;2.70;;;1.90;;
76939;SDS011;65885;55.848;35.916;2023-02-01T02:06:33;3.65;;;2.03;;
76939;SDS011;65885;55.848;35.916;2023-02-01T02:09:05;2.83;;;1.90;;
76939;SDS011;65885;55.848;35.916;2023-02-01T02:11:34;2.85;;;2.08;;
76939;SDS011;65885;55.848;35.916;2023-02-01T02:14:02;2.47;;;1.73;;
76939;SDS011;65885;55.848;35.916;2023-02-01T02:16:40;2.80;;;1.52;;
76939;SDS011;65885;55.848;35.916;2023-02-01T02:19:32;2.63;;;1.73;;
76939;SDS011;65885;55.848;35.916;2023-02-01T02:25:51;3.40;;;1.73;;
76939;SDS011;65885;55.848;35.916;2023-02-01T02:28:41;2.45;;;1.95;;
76939;SDS011;65885;55.848;35.916;2023-02-01T02:31:36;2.35;;;1.88;;
76939;SDS011;65885;55.848;35.916;2023-02-01T02:34:21;3.10;;;1.77;;
76939;SDS011;65885;55.848;35.916;2023-02-01T02:36:56;2.55;;;1.60;;
76939;SDS011;65885;55.848;35.916;2023-02-01T02:39:34;2.70;;;1.63;;
76939;SDS011;65885;55.848;35.916;2023-02-01T02:42:11;2.63;;;1.98;;
76939;SDS011;65885;55.848;35.916;2023-02-01T02:45:02;3.10;;;2.00;;
76939;SDS011;65885;55.848;35.916;2023-02-01T02:47:53;3.15;;;1.92;;
76939;SDS011;65885;55.848;35.916;2023-02-01T02:50:26;2.63;;;1.73;;
76939;SDS011;65885;55.848;35.916;2023-02-01T02:53:13;3.20;;;2.03;;
76939;SDS011;65885;55.848;35.916;2023-02-01T02:56:01;2.72;;;1.80;;
76939;SDS011;65885;55.848;35.916;2023-02-01T02:58:49;4.07;;;2.05;;
76939;SDS011;65885;55.848;35.916;2023-02-01T03:01:34;3.45;;;2.40;;
76939;SDS011;65885;55.848;35.916;2023-02-01T03:04:19;3.33;;;1.80;;
76939;SDS011;65885;55.848;35.916;2023-02-01T03:06:47;3.75;;;1.85;;
76939;SDS011;65885;55.848;35.916;2023-02-01T03:09:16;4.10;;;2.17;;
76939;SDS011;65885;55.848;35.916;2023-02-01T03:11:47;3.00;;;2.17;;
76939;SDS011;65885;55.848;35.916;2023-02-01T03:14:35;3.53;;;2.72;;
76939;SDS011;65885;55.848;35.916;2023-02-01T03:17:08;2.78;;;1.80;;
76939;SDS011;65885;55.848;35.916;2023-02-01T03:19:40;2.85;;;2.03;;
76939;SDS011;65885;55.848;35.916;2023-02-01T03:22:16;3.22;;;2.00;;
76939;SDS011;65885;55.848;35.916;2023-02-01T03:24:49;2.95;;;2.20;;
76939;SDS011;65885;55.848;35.916;2023-02-01T03:27:21;3.65;;;1.80;;
76939;SDS011;65885;55.848;35.916;2023-02-01T03:29:52;3.30;;;2.28;;
76939;SDS011;65885;55.848;35.916;2023-02-01T03:32:29;2.80;;;1.98;;
76939;SDS011;65885;55.848;35.916;2023-02-01T03:35:17;4.63;;;2.30;;
76939;SDS011;65885;55.848;35.916;2023-02-01T03:37:56;2.85;;;1.92;;
76939;SDS011;65885;55.848;35.916;2023-02-01T03:40:30;3.25;;;2.35;;
76939;SDS011;65885;55.848;35.916;2023-02-01T03:43:04;3.65;;;1.85;;
76939;SDS011;65885;55.848;35.916;2023-02-01T03:45:34;3.92;;;2.03;;
76939;SDS011;65885;55.848;35.916;2023-02-01T03:48:07;5.05;;;2.50;;
76939;SDS011;65885;55.848;35.916;2023-02-01T03:53:12;4.82;;;2.17;;
76939;SDS011;65885;55.848;35.916;2023-02-01T03:55:42;3.75;;;2.20;;
76939;SDS011;65885;55.848;35.916;2023-02-01T03:58:11;3.75;;;2.10;;
76939;SDS011;65885;55.848;35.916;2023-02-01T04:00:43;4.20;;;2.17;;
76939;SDS011;65885;55.848;35.916;2023-02-01T04:03:11;3.80;;;2.20;;
76939;SDS011;65885;55.848;35.916;2023-02-01T04:05:38;3.63;;;2.47;;
76939;SDS011;65885;55.848;35.916;2023-02-01T04:08:06;4.45;;;2.45;;
76939;SDS011;65885;55.848;35.916;2023-02-01T04:10:35;4.35;;;2.50;;
76939;SDS011;65885;55.848;35.916;2023-02-01T04:13:02;3.53;;;2.00;;
76939;SDS011;65885;55.848;35.916;2023-02-01T04:15:29;5.45;;;2.70;;
76939;SDS011;65885;55.848;35.916;2023-02-01T04:17:57;3.85;;;2.50;;
76939;SDS011;65885;55.848;35.916;2023-02-01T04:20:24;3.65;;;2.40;;
76939;SDS011;65885;55.848;35.916;2023-02-01T04:22:51;3.60;;;2.25;;
76939;SDS011;65885;55.848;35.916;2023-02-01T04:25:19;4.00;;;2.53;;
76939;SDS011;65885;55.848;35.916;2023-02-01T04:27:48;4.15;;;2.40;;
76939;SDS011;65885;55.848;35.916;2023-02-01T04:30:15;4.00;;;2.53;;
76939;SDS011;65885;55.848;35.916;2023-02-01T04:32:43;4.32;;;2.47;;
76939;SDS011;65885;55.848;35.916;2023-02-01T04:35:10;3.40;;;2.17;;
76939;SDS011;65885;55.848;35.916;2023-02-01T04:37:38;3.85;;;2.30;;
76939;SDS011;65885;55.848;35.916;2023-02-01T04:40:05;3.10;;;2.08;;
76939;SDS011;65885;55.848;35.916;2023-02-01T04:42:33;2.80;;;2.05;;
76939;SDS011;65885;55.848;35.916;2023-02-01T04:45:02;3.28;;;2.03;;
76939;SDS011;65885;55.848;35.916;2023-02-01T04:47:30;3.17;;;2.33;;
76939;SDS011;65885;55.848;35.916;2023-02-01T04:49:58;3.88;;;2.50;;
76939;SDS011;65885;55.848;35.916;2023-02-01T04:52:25;4.28;;;2.33;;
76939;SDS011;65885;55.848;35.916;2023-02-01T04:54:53;5.13;;;2.38;;
76939;SDS011;65885;55.848;35.916;2023-02-01T04:57:22;4.80;;;2.92;;
76939;SDS011;65885;55.848;35.916;2023-02-01T04:59:52;3.70;;;2.17;;
76939;SDS011;65885;55.848;35.916;2023-02-01T05:02:23;4.15;;;2.42;;
76939;SDS011;65885;55.848;35.916;2023-02-01T05:04:51;4.63;;;2.55;;
76939;SDS011;65885;55.848;35.916;2023-02-01T05:07:19;3.60;;;2.13;;
76939;SDS011;65885;55.848;35.916;2023-02-01T05:09:46;4.93;;;3.15;;
76939;SDS011;65885;55.848;35.916;2023-02-01T05:12:14;4.75;;;2.53;;
76939;SDS011;65885;55.848;35.916;2023-02-01T05:14:58;3.63;;;2.33;;
76939;SDS011;65885;55.848;35.916;2023-02-01T05:17:27;3.88;;;2.22;;
76939;SDS011;65885;55.848;35.916;2023-02-01T05:19:57;3.92;;;2.15;;
76939;SDS011;65885;55.848;35.916;2023-02-01T05:22:24;3.67;;;2.15;;
76939;SDS011;65885;55.848;35.916;2023-02-01T05:24:53;3.58;;;2.10;;
76939;SDS011;65885;55.848;35.916;2023-02-01T05:27:21;3.63;;;1.90;;
76939;SDS011;65885;55.848;35.916;2023-02-01T05:29:48;2.55;;;1.65;;
76939;SDS011;65885;55.848;35.916;2023-02-01T05:32:15;3.30;;;2.00;;
76939;SDS011;65885;55.848;35.916;2023-02-01T05:34:46;3.97;;;2.05;;
76939;SDS011;65885;55.848;35.916;2023-02-01T05:37:14;3.50;;;1.90;;
76939;SDS011;65885;55.848;35.916;2023-02-01T05:39:41;2.55;;;1.75;;
76939;SDS011;65885;55.848;35.916;2023-02-01T05:42:09;4.45;;;1.90;;
76939;SDS011;65885;55.848;35.916;2023-02-01T05:44:37;2.72;;;1.98;;
76939;SDS011;65885;55.848;35.916;2023-02-01T05:47:04;3.47;;;1.92;;
76939;SDS011;65885;55.848;35.916;2023-02-01T05:49:31;3.42;;;2.03;;
76939;SDS011;65885;55.848;35.916;2023-02-01T05:52:00;3.10;;;1.83;;
76939;SDS011;65885;55.848;35.916;2023-02-01T05:54:27;2.67;;;1.90;;
76939;SDS011;65885;55.848;35.916;2023-02-01T05:56:55;3.15;;;1.60;;
76939;SDS011;65885;55.848;35.916;2023-02-01T05:59:22;3.58;;;1.70;;
76939;SDS011;65885;55.848;35.916;2023-02-01T06:01:49;2.35;;;1.88;;
76939;SDS011;65885;55.848;35.916;2023-02-01T06:04:17;2.30;;;1.70;;
76939;SDS011;65885;55.848;35.916;2023-02-01T06:06:45;3.80;;;1.95;;
76939;SDS011;65885;55.848;35.916;2023-02-01T06:09:14;2.45;;;1.85;;
76939;SDS011;65885;55.848;35.916;2023-02-01T06:11:42;3.95;;;2.03;;
76939;SDS011;65885;55.848;35.916;2023-02-01T06:14:09;3.17;;;1.73;;
76939;SDS011;65885;55.848;35.916;2023-02-01T06:16:37;4.15;;;2.17;;
76939;SDS011;65885;55.848;35.916;2023-02-01T06:19:04;3.95;;;2.50;;
76939;SDS011;65885;55.848;35.916;2023-02-01T06:21:31;3.67;;;2.30;;
76939;SDS011;65885;55.848;35.916;2023-02-01T06:23:58;3.53;;;2.30;;
76939;SDS011;65885;55.848;35.916;2023-02-01T06:26:27;3.53;;;2.40;;
76939;SDS011;65885;55.848;35.916;2023-02-01T06:28:55;3.47;;;2.13;;
76939;SDS011;65885;55.848;35.916;2023-02-01T06:31:23;4.63;;;2.60;;
76939;SDS011;65885;55.848;35.916;2023-02-01T06:33:51;3.92;;;2.10;;
76939;SDS011;65885;55.848;35.916;2023-02-01T06:36:18;3.38;;;2.20;;
76939;SDS011;65885;55.848;35.916;2023-02-01T06:38:47;5.10;;;2.45;;
76939;SDS011;65885;55.848;35.916;2023-02-01T06:41:14;3.25;;;2.40;;
76939;SDS011;65885;55.848;35.916;2023-02-01T06:43:44;3.88;;;2.08;;
76939;SDS011;65885;55.848;35.916;2023-02-01T06:46:12;3.85;;;2.13;;
76939;SDS011;65885;55.848;35.916;2023-02-01T06:48:40;3.92;;;2.35;;
76939;SDS011;65885;55.848;35.916;2023-02-01T06:51:16;3.15;;;2.25;;
76939;SDS011;65885;55.848;35.916;2023-02-01T06:53:46;6.93;;;2.63;;
76939;SDS011;65885;55.848;35.916;2023-02-01T06:56:17;3.28;;;2.05;;
76939;SDS011;65885;55.848;35.916;2023-02-01T06:58:46;5.72;;;2.75;;
76939;SDS011;65885;55.848;35.916;2023-02-01T07:01:13;3.70;;;2.33;;
76939;SDS011;65885;55.848;35.916;2023-02-01T07:03:41;3.40;;;2.35;;
76939;SDS011;65885;55.848;35.916;2023-02-01T07:06:09;4.82;;;2.78;;
76939;SDS011;65885;55.848;35.916;2023-02-01T07:08:37;4.30;;;2.38;;
76939;SDS011;65885;55.848;35.916;2023-02-01T07:11:05;2.95;;;1.83;;
76939;SDS011;65885;55.848;35.916;2023-02-01T07:13:33;3.20;;;2.05;;
76939;SDS011;65885;55.848;35.916;2023-02-01T07:16:04;3.55;;;2.75;;
76939;SDS011;65885;55.848;35.916;2023-02-01T07:18:32;4.65;;;2.45;;
76939;SDS011;65885;55.848;35.916;2023-02-01T07:20:59;5.45;;;2.70;;
76939;SDS011;65885;55.848;35.916;2023-02-01T07:23:27;3.53;;;2.58;;
76939;SDS011;65885;55.848;35.916;2023-02-01T07:25:54;4.85;;;2.60;;
76939;SDS011;65885;55.848;35.916;2023-02-01T07:28:22;6.25;;;3.20;;
76939;SDS011;65885;55.848;35.916;2023-02-01T07:30:50;5.28;;;2.42;;
76939;SDS011;65885;55.848;35.916;2023-02-01T07:33:26;4.70;;;2.90;;
76939;SDS011;65885;55.848;35.916;2023-02-01T07:35:53;3.75;;;2.70;;
76939;SDS011;65885;55.848;35.916;2023-02-01T07:38:21;4.28;;;2.65;;
76939;SDS011;65885;55.848;35.916;2023-02-01T07:40:49;4.55;;;3.05;;
76939;SDS011;65885;55.848;35.916;2023-02-01T07:43:17;4.82;;;2.85;;
76939;SDS011;65885;55.848;35.916;2023-02-01T07:45:50;6.75;;;3.15;;
76939;SDS011;65885;55.848;35.916;2023-02-01T07:48:20;4.82;;;2.78;;
76939;SDS011;65885;55.848;35.916;2023-02-01T07:50:47;5.60;;;3.28;;
76939;SDS011;65885;55.848;35.916;2023-02-01T07:53:15;7.55;;;3.38;;
76939;SDS011;65885;55.848;35.916;2023-02-01T07:55:42;7.20;;;3.85;;
76939;SDS011;65885;55.848;35.916;2023-02-01T07:58:10;6.55;;;3.78;;
76939;SDS011;65885;55.848;35.916;2023-02-01T08:00:37;6.05;;;3.67;;
76939;SDS011;65885;55.848;35.916;2023-02-01T08:03:23;6.15;;;3.53;;
76939;SDS011;65885;55.848;35.916;2023-02-01T08:05:53;6.30;;;3.80;;
76939;SDS011;65885;55.848;35.916;2023-02-01T08:08:22;5.72;;;3.28;;
76939;SDS011;65885;55.848;35.916;2023-02-01T08:10:50;8.05;;;3.88;;
76939;SDS011;65885;55.848;35.916;2023-02-01T08:13:19;5.10;;;3.47;;
76939;SDS011;65885;55.848;35.916;2023-02-01T08:15:47;6.80;;;3.80;;
76939;SDS011;65885;55.848;35.916;2023-02-01T08:18:14;8.57;;;4.35;;
76939;SDS011;65885;55.848;35.916;2023-02-01T08:20:44;6.63;;;3.92;;
76939;SDS011;65885;55.848;35.916;2023-02-01T08:23:12;8.05;;;4.38;;
76939;SDS011;65885;55.848;35.916;2023-02-01T08:25:40;7.63;;;3.88;;
76939;SDS011;65885;55.848;35.916;2023-02-01T08:28:07;7.70;;;3.97;;
76939;SDS011;65885;55.848;35.916;2023-02-01T08:30:36;9.23;;;4.40;;
76939;SDS011;65885;55.848;35.916;2023-02-01T08:33:04;8.75;;;4.15;;
76939;SDS011;65885;55.848;35.916;2023-02-01T08:35:33;7.55;;;4.18;;
76939;SDS011;65885;55.848;35.916;2023-02-01T08:38:04;7.70;;;4.05;;
76939;SDS011;65885;55.848;35.916;2023-02-01T08:40:31;6.28;;;3.83;;
76939;SDS011;65885;55.848;35.916;2023-02-01T08:42:59;6.55;;;4.03;;
76939;SDS011;65885;55.848;35.916;2023-02-01T08:45:28;9.32;;;5.05;;
76939;SDS011;65885;55.848;35.916;2023-02-01T08:47:56;9.35;;;4.57;;
76939;SDS011;65885;55.848;35.916;2023-02-01T08:50:23;7.07;;;4.07;;
76939;SDS011;65885;55.848;35.916;2023-02-01T08:52:52;8.02;;;4.40;;
76939;SDS011;65885;55.848;35.916;2023-02-01T08:55:21;9.20;;;4.85;;
76939;SDS011;65885;55.848;35.916;2023-02-01T08:57:48;7.70;;;4.45;;
76939;SDS011;65885;55.848;35.916;2023-02-01T09:00:16;8.65;;;4.97;;
76939;SDS011;65885;55.848;35.916;2023-02-01T09:02:44;7.75;;;4.13;;
76939;SDS011;65885;55.848;35.916;2023-02-01T09:05:12;10.93;;;4.93;;
76939;SDS011;65885;55.848;35.916;2023-02-01T09:07:41;8.70;;;4.47;;
76939;SDS011;65885;55.848;35.916;2023-02-01T09:10:09;5.47;;;2.95;;
76939;SDS011;65885;55.848;35.916;2023-02-01T09:12:39;6.40;;;3.13;;
76939;SDS011;65885;55.848;35.916;2023-02-01T09:15:09;5.85;;;2.88;;
76939;SDS011;65885;55.848;35.916;2023-02-01T09:17:37;4.55;;;3.08;;
76939;SDS011;65885;55.848;35.916;2023-02-01T09:20:09;5.90;;;3.03;;
76939;SDS011;65885;55.848;35.916;2023-02-01T09:22:37;4.28;;;2.47;;
76939;SDS011;65885;55.848;35.916;2023-02-01T09:25:05;5.80;;;2.85;;
76939;SDS011;65885;55.848;35.916;2023-02-01T09:27:34;5.30;;;2.58;;
76939;SDS011;65885;55.848;35.916;2023-02-01T09:30:04;3.92;;;2.13;;
76939;SDS011;65885;55.848;35.916;2023-02-01T09:32:31;3.53;;;2.03;;
76939;SDS011;65885;55.848;35.916;2023-02-01T09:34:59;2.45;;;1.35;;
76939;SDS011;65885;55.848;35.916;2023-02-01T09:37:26;2.65;;;1.45;;
76939;SDS011;65885;55.848;35.916;2023-02-01T09:39:53;2.50;;;1.40;;
76939;SDS011;65885;55.848;35.916;2023-02-01T09:42:24;2.08;;;1.25;;
76939;SDS011;65885;55.848;35.916;2023-02-01T09:45:09;1.95;;;1.20;;
76939;SDS011;65885;55.848;35.916;2023-02-01T09:47:46;2.45;;;1.50;;
76939;SDS011;65885;55.848;35.916;2023-02-01T09:50:16;1.70;;;1.25;;
76939;SDS011;65885;55.848;35.916;2023-02-01T09:52:48;2.30;;;1.67;;
76939;SDS011;65885;55.848;35.916;2023-02-01T09:55:23;2.05;;;1.52;;
76939;SDS011;65885;55.848;35.916;2023-02-01T09:58:00;2.50;;;1.20;;
76939;SDS011;65885;55.848;35.916;2023-02-01T10:00:33;2.40;;;1.67;;
76939;SDS011;65885;55.848;35.916;2023-02-01T10:03:02;4.93;;;2.05;;
76939;SDS011;65885;55.848;35.916;2023-02-01T10:05:37;2.10;;;1.55;;
76939;SDS011;65885;55.848;35.916;2023-02-01T10:08:17;3.88;;;1.90;;
76939;SDS011;65885;55.848;35.916;2023-02-01T10:10:52;3.50;;;1.83;;
76939;SDS011;65885;55.848;35.916;2023-02-01T10:13:31;3.45;;;1.63;;
76939;SDS011;65885;55.848;35.916;2023-02-01T10:16:19;2.63;;;1.90;;
76939;SDS011;65885;55.848;35.916;2023-02-01T10:19:10;2.60;;;1.70;;
76939;SDS011;65885;55.848;35.916;2023-02-01T10:21:54;1.67;;;1.20;;
76939;SDS011;65885;55.848;35.916;2023-02-01T10:24:28;3.25;;;1.40;;
76939;SDS011;65885;55.848;35.916;2023-02-01T10:27:07;2.05;;;1.27;;
76939;SDS011;65885;55.848;35.916;2023-02-01T10:29:41;2.10;;;1.38;;
76939;SDS011;65885;55.848;35.916;2023-02-01T10:34:44;1.42;;;1.02;;
76939;SDS011;65885;55.848;35.916;2023-02-01T10:37:22;2.33;;;1.40;;
76939;SDS011;65885;55.848;35.916;2023-02-01T10:39:53;2.03;;;1.42;;
76939;SDS011;65885;55.848;35.916;2023-02-01T10:42:24;1.75;;;1.13;;
76939;SDS011;65885;55.848;35.916;2023-02-01T10:44:53;1.85;;;1.10;;
76939;SDS011;65885;55.848;35.916;2023-02-01T10:47:24;1.70;;;1.23;;
76939;SDS011;65885;55.848;35.916;2023-02-01T10:49:54;1.80;;;1.13;;
76939;SDS011;65885;55.848;35.916;2023-02-01T10:52:29;2.72;;;1.20;;
76939;SDS011;65885;55.848;35.916;2023-02-01T10:58:14;1.42;;;1.13;;
76939;SDS011;65885;55.848;35.916;2023-02-01T11:00:43;2.25;;;1.33;;
76939;SDS011;65885;55.848;35.916;2023-02-01T11:03:21;2.30;;;1.25;;
76939;SDS011;65885;55.848;35.916;2023-02-01T11:05:57;2.60;;;1.20;;
76939;SDS011;65885;55.848;35.916;2023-02-01T11:08:24;2.25;;;1.40;;
76939;SDS011;65885;55.848;35.916;2023-02-01T11:10:58;2.72;;;1.25;;
76939;SDS011;65885;55.848;35.916;2023-02-01T11:13:28;2.33;;;1.25;;
76939;SDS011;65885;55.848;35.916;2023-02-01T11:15:59;2.40;;;1.38;;
76939;SDS011;65885;55.848;35.916;2023-02-01T11:18:31;2.90;;;1.70;;
76939;SDS011;65885;55.848;35.916;2023-02-01T11:21:01;3.88;;;1.95;;
76939;SDS011;65885;55.848;35.916;2023-02-01T11:23:31;5.72;;;2.70;;
76939;SDS011;65885;55.848;35.916;2023-02-01T11:26:02;5.38;;;3.00;;
76939;SDS011;65885;55.848;35.916;2023-02-01T11:28:38;5.88;;;3.13;;
76939;SDS011;65885;55.848;35.916;2023-02-01T11:31:08;8.35;;;3.95;;
76939;SDS011;65885;55.848;35.916;2023-02-01T11:33:42;9.30;;;4.03;;
76939;SDS011;65885;55.848;35.916;2023-02-01T11:36:15;10.20;;;5.25;;
76939;SDS011;65885;55.848;35.916;2023-02-01T11:38:45;10.18;;;4.93;;
76939;SDS011;65885;55.848;35.916;2023-02-01T11:41:21;10.93;;;5.57;;
76939;SDS011;65885;55.848;35.916;2023-02-01T11:43:50;19.92;;;5.88;;
76939;SDS011;65885;55.848;35.916;2023-02-01T11:46:19;12.13;;;6.53;;
76939;SDS011;65885;55.848;35.916;2023-02-01T11:51:37;13.80;;;6.53;;
76939;SDS011;65885;55.848;35.916;2023-02-01T11:54:23;15.68;;;7.53;;
76939;SDS011;65885;55.848;35.916;2023-02-01T11:57:07;15.15;;;7.15;;
76939;SDS011;65885;55.848;35.916;2023-02-01T11:59:49;14.73;;;7.13;;
76939;SDS011;65885;55.848;35.916;2023-02-01T12:05:40;14.18;;;7.53;;
76939;SDS011;65885;55.848;35.916;2023-02-01T12:08:22;14.80;;;7.40;;
76939;SDS011;65885;55.848;35.916;2023-02-01T12:11:20;15.73;;;6.90;;
76939;SDS011;65885;55.848;35.916;2023-02-01T12:14:02;16.83;;;7.25;;
76939;SDS011;65885;55.848;35.916;2023-02-01T12:16:47;18.30;;;8.15;;
76939;SDS011;65885;55.848;35.916;2023-02-01T12:19:36;17.15;;;7.95;;
76939;SDS011;65885;55.848;35.916;2023-02-01T12:22:18;17.30;;;7.32;;
76939;SDS011;65885;55.848;35.916;2023-02-01T12:25:05;16.83;;;7.38;;
76939;SDS011;65885;55.848;35.916;2023-02-01T12:31:10;16.70;;;7.22;;
76939;SDS011;65885;55.848;35.916;2023-02-01T12:34:07;14.95;;;7.93;;
76939;SDS011;65885;55.848;35.916;2023-02-01T12:36:46;17.23;;;8.00;;
76939;SDS011;65885;55.848;35.916;2023-02-01T12:39:22;17.52;;;7.28;;
76939;SDS011;65885;55.848;35.916;2023-02-01T12:41:53;20.25;;;8.32;;
76939;SDS011;65885;55.848;35.916;2023-02-01T12:44:30;15.60;;;7.65;;
76939;SDS011;65885;55.848;35.916;2023-02-01T12:47:05;16.75;;;7.75;;
76939;SDS011;65885;55.848;35.916;2023-02-01T12:49:43;18.20;;;7.75;;
76939;SDS011;65885;55.848;35.916;2023-02-01T12:52:16;19.85;;;7.97;;
76939;SDS011;65885;55.848;35.916;2023-02-01T12:54:50;16.20;;;7.25;;
76939;SDS011;65885;55.848;35.916;2023-02-01T12:57:25;16.38;;;7.55;;
76939;SDS011;65885;55.848;35.916;2023-02-01T13:00:01;15.40;;;7.05;;
76939;SDS011;65885;55.848;35.916;2023-02-01T13:02:36;14.43;;;7.25;;
76939;SDS011;65885;55.848;35.916;2023-02-01T13:05:12;18.33;;;7.93;;
76939;SDS011;65885;55.848;35.916;2023-02-01T13:07:45;15.20;;;6.78;;
76939;SDS011;65885;55.848;35.916;2023-02-01T13:10:18;16.42;;;7.40;;
76939;SDS011;65885;55.848;35.916;2023-02-01T13:12:53;15.52;;;6.80;;
76939;SDS011;65885;55.848;35.916;2023-02-01T13:15:28;15.20;;;7.13;;
76939;SDS011;65885;55.848;35.916;2023-02-01T13:18:00;13.98;;;7.43;;
76939;SDS011;65885;55.848;35.916;2023-02-01T13:20:32;13.45;;;7.30;;
76939;SDS011;65885;55.848;35.916;2023-02-01T13:23:04;15.55;;;7.03;;
76939;SDS011;65885;55.848;35.916;2023-02-01T13:25:40;16.33;;;7.88;;
76939;SDS011;65885;55.848;35.916;2023-02-01T13:28:16;14.15;;;6.68;;
76939;SDS011;65885;55.848;35.916;2023-02-01T13:30:52;16.95;;;7.78;;
76939;SDS011;65885;55.848;35.916;2023-02-01T13:33:38;14.70;;;6.40;;
76939;SDS011;65885;55.848;35.916;2023-02-01T13:36:21;15.80;;;7.03;;
76939;SDS011;65885;55.848;35.916;2023-02-01T13:39:14;14.63;;;7.05;;
76939;SDS011;65885;55.848;35.916;2023-02-01T13:41:57;13.18;;;7.40;;
76939;SDS011;65885;55.848;35.916;2023-02-01T13:44:28;16.52;;;6.90;;
76939;SDS011;65885;55.848;35.916;2023-02-01T13:46:59;15.13;;;6.70;;
76939;SDS011;65885;55.848;35.916;2023-02-01T13:49:30;13.13;;;6.25;;
76939;SDS011;65885;55.848;35.916;2023-02-01T13:52:03;13.13;;;6.55;;
76939;SDS011;65885;55.848;35.916;2023-02-01T13:54:33;15.05;;;7.03;;
76939;SDS011;65885;55.848;35.916;2023-02-01T14:03:01;12.77;;;6.32;;
76939;SDS011;65885;55.848;35.916;2023-02-01T14:06:03;14.52;;;7.10;;
76939;SDS011;65885;55.848;35.916;2023-02-01T14:08:45;14.77;;;7.43;;
76939;SDS011;65885;55.848;35.916;2023-02-01T14:11:37;15.43;;;6.78;;
76939;SDS011;65885;55.848;35.916;2023-02-01T14:14:36;14.85;;;7.47;;
76939;SDS011;65885;55.848;35.916;2023-02-01T14:26:07;14.38;;;6.20;;
76939;SDS011;65885;55.848;35.916;2023-02-01T14:31:37;14.88;;;7.15;;
76939;SDS011;65885;55.848;35.916;2023-02-01T14:34:14;15.32;;;6.95;;
76939;SDS011;65885;55.848;35.916;2023-02-01T14:36:44;13.80;;;6.38;;
76939;SDS011;65885;55.848;35.916;2023-02-01T14:39:19;12.27;;;6.53;;
76939;SDS011;65885;55.848;35.916;2023-02-01T14:41:52;12.82;;;6.43;;
76939;SDS011;65885;55.848;35.916;2023-02-01T14:44:26;14.27;;;6.78;;
76939;SDS011;65885;55.848;35.916;2023-02-01T14:47:08;14.02;;;7.47;;
76939;SDS011;65885;55.848;35.916;2023-02-01T14:50:02;12.05;;;6.63;;
76939;SDS011;65885;55.848;35.916;2023-02-01T14:52:38;15.85;;;7.43;;
76939;SDS011;65885;55.848;35.916;2023-02-01T14:55:10;15.60;;;7.55;;
76939;SDS011;65885;55.848;35.916;2023-02-01T14:57:46;12.15;;;6.55;;
76939;SDS011;65885;55.848;35.916;2023-02-01T15:00:19;16.42;;;7.20;;
76939;SDS011;65885;55.848;35.916;2023-02-01T15:02:51;15.35;;;7.30;;
76939;SDS011;65885;55.848;35.916;2023-02-01T15:05:25;14.35;;;6.70;;
76939;SDS011;65885;55.848;35.916;2023-02-01T15:07:57;14.20;;;7.53;;
76939;SDS011;65885;55.848;35.916;2023-02-01T15:10:30;15.50;;;7.53;;
76939;SDS011;65885;55.848;35.916;2023-02-01T15:13:00;14.00;;;6.55;;
76939;SDS011;65885;55.848;35.916;2023-02-01T15:15:27;15.13;;;7.20;;
76939;SDS011;65885;55.848;35.916;2023-02-01T15:18:00;15.60;;;7.05;;
76939;SDS011;65885;55.848;35.916;2023-02-01T15:20:28;11.55;;;7.03;;
76939;SDS011;65885;55.848;35.916;2023-02-01T15:22:58;14.68;;;7.72;;
76939;SDS011;65885;55.848;35.916;2023-02-01T15:25:27;15.65;;;7.45;;
76939;SDS011;65885;55.848;35.916;2023-02-01T15:27:59;14.70;;;6.90;;
76939;SDS011;65885;55.848;35.916;2023-02-01T15:30:27;13.20;;;6.95;;
76939;SDS011;65885;55.848;35.916;2023-02-01T15:33:08;13.18;;;7.10;;
76939;SDS011;65885;55.848;35.916;2023-02-01T15:35:49;14.15;;;6.32;;
76939;SDS011;65885;55.848;35.916;2023-02-01T15:38:34;17.98;;;6.85;;